Accueil
METAR-TAF:

METAR-TAF

Aéroports :

Aéroport international de Xi'an Xianyang

Xi'an, Chine

latitude: 34-26N, longitude: 108-45E, altitude: 479 m

Observation

Le bulletin a été fait il y a 18 minutes, à 00:00 UTC
Vent 2 kt de direction variable
Température 6°C
Humidité 100%
Pression 1018 hPa
Visibilité: 4000 m
brume

METAR: ZLXY 120000Z VRB01MPS 4000 BR NSC 06/06 Q1018 NOSIG

Heure: 08:18 (00:18 UTC)

Prévision

Le bulletin a été fait il y a 5 heures et 6 minutes, à 19:12 UTC
Prévision valable du 12 à 00 UTC au 12 à 24 UTC
Vent 6 kt de ouest/sud-ouest
Visibilité: 3000 m
brume
Evoluant progressivement
du 12 à 05 UTC au 12 à 06 UTC
Visibilité: 2800 m
pluie faible, brume
Evoluant progressivement
du 12 à 11 UTC au 12 à 12 UTC
Visibilité: 3000 m
brume sèche

TAF: ZLXY 111912Z 1200/1224 24003MPS 3000 BR NSC TX16/1207Z TN06/1222Z BECMG 1205/1206 2800 -RA BR BECMG 1211/1212 3000 HZ

Observations et prévisions météorologiques de plus de 4000 aéroports (messages METAR et TAF).

Les stations disponibles sont représentées par des disques jaunes et rouges sur la carte.

Passer la souris dessus pour voir le nom de la station.

Cliquer dessus pour voir les observations et prévisions météorologiques.

Pour changer de carte: cliquez sur les boutons verts avec une croix noire pour zoomer, sur le bouton vert avec un tiret pour effectuer un zoom arrière, ou sur les flèches vertes pour les cartes adjacentes.


METAR-TAF: